TimeAKDT,TemperatureF,Dew PointF,Humidity,Sea Level PressureIn,VisibilityMPH,Wind Direction,Wind SpeedMPH,Gust SpeedMPH,PrecipitationIn,Events,Conditions,WindDirDegrees,DateUTC
12:53 AM,51.1,39.0,63,29.94,10.0,NW,10.4,-,N/A,,Clear,320,2013-05-22 08:53:00
1:53 AM,54.0,34.0,47,29.94,10.0,WNW,10.4,-,N/A,,Clear,300,2013-05-22 09:53:00
2:53 AM,53.1,34.0,48,29.94,10.0,WNW,10.4,-,N/A,,Clear,300,2013-05-22 10:53:00
3:53 AM,52.0,37.0,57,29.93,10.0,NW,9.2,-,N/A,,Clear,320,2013-05-22 11:53:00
4:53 AM,53.1,34.0,48,29.94,10.0,NW,10.4,-,N/A,,Clear,310,2013-05-22 12:53:00
5:53 AM,54.0,34.0,47,29.94,10.0,WNW,10.4,18.4,N/A,,Clear,300,2013-05-22 13:53:00
6:53 AM,54.0,34.0,47,29.94,10.0,NW,10.4,-,N/A,,Clear,310,2013-05-22 14:53:00
7:53 AM,55.0,36.0,49,29.94,10.0,NW,11.5,21.9,N/A,,Partly Cloudy,320,2013-05-22 15:53:00
8:53 AM,55.9,37.0,49,29.94,10.0,NW,13.8,19.6,N/A,,Clear,320,2013-05-22 16:53:00
9:53 AM,60.1,36.0,41,29.94,10.0,NNW,13.8,-,N/A,,Clear,330,2013-05-22 17:53:00
10:53 AM,62.1,37.0,39,29.94,10.0,NNW,12.7,-,N/A,,Clear,330,2013-05-22 18:53:00
11:53 AM,61.0,41.0,48,29.96,10.0,North,11.5,-,N/A,,Clear,350,2013-05-22 19:53:00
12:53 PM,64.0,37.9,38,29.96,10.0,NW,11.5,-,N/A,,Clear,320,2013-05-22 20:53:00
1:53 PM,63.0,41.0,45,29.96,10.0,North,13.8,-,N/A,,Clear,350,2013-05-22 21:53:00
2:53 PM,63.0,39.9,43,29.96,10.0,NNW,12.7,-,N/A,,Clear,340,2013-05-22 22:53:00
3:53 PM,64.9,37.0,36,29.96,10.0,NNW,12.7,21.9,N/A,,Clear,330,2013-05-22 23:53:00
4:53 PM,64.9,41.0,42,29.96,10.0,NNW,11.5,-,N/A,,Clear,330,2013-05-23 00:53:00
5:53 PM,63.0,41.0,45,29.97,10.0,NNW,11.5,-,N/A,,Clear,340,2013-05-23 01:53:00
6:53 PM,61.0,42.1,50,29.97,10.0,NW,8.1,-,N/A,,Clear,320,2013-05-23 02:53:00
7:53 PM,63.0,37.9,40,29.98,10.0,NW,9.2,-,N/A,,Clear,320,2013-05-23 03:53:00
8:53 PM,60.1,37.9,44,29.99,10.0,WNW,8.1,-,N/A,,Partly Cloudy,300,2013-05-23 04:53:00
9:53 PM,60.1,35.1,39,29.99,10.0,NW,8.1,-,N/A,,Overcast,310,2013-05-23 05:53:00
10:53 PM,59.0,35.1,41,29.98,10.0,WNW,9.2,-,N/A,,Mostly Cloudy,300,2013-05-23 06:53:00
11:53 PM,57.9,35.1,42,29.98,10.0,NW,9.2,-,N/A,,Overcast,310,2013-05-23 07:53:00